sensor_id;sensor_type;location;lat;lon;timestamp;P1;durP1;ratioP1;P2;durP2;ratioP2
28547;SDS011;68292;49.600;8.746;2023-05-17T00:00:37;4.30;;;1.80;;
28547;SDS011;68292;49.600;8.746;2023-05-17T00:03:06;2.67;;;1.83;;
28547;SDS011;68292;49.600;8.746;2023-05-17T00:05:34;3.20;;;1.73;;
28547;SDS011;68292;49.600;8.746;2023-05-17T00:08:02;2.30;;;1.70;;
28547;SDS011;68292;49.600;8.746;2023-05-17T00:10:31;2.10;;;1.80;;
28547;SDS011;68292;49.600;8.746;2023-05-17T00:13:01;2.70;;;1.80;;
28547;SDS011;68292;49.600;8.746;2023-05-17T00:15:29;2.37;;;1.80;;
28547;SDS011;68292;49.600;8.746;2023-05-17T00:17:57;1.77;;;1.60;;
28547;SDS011;68292;49.600;8.746;2023-05-17T00:20:26;2.13;;;1.80;;
28547;SDS011;68292;49.600;8.746;2023-05-17T00:22:54;1.93;;;1.60;;
28547;SDS011;68292;49.600;8.746;2023-05-17T00:25:22;4.20;;;1.60;;
28547;SDS011;68292;49.600;8.746;2023-05-17T00:27:50;2.13;;;1.80;;
28547;SDS011;68292;49.600;8.746;2023-05-17T00:30:19;2.83;;;1.80;;
28547;SDS011;68292;49.600;8.746;2023-05-17T00:32:48;2.27;;;1.70;;
28547;SDS011;68292;49.600;8.746;2023-05-17T00:35:17;2.47;;;1.80;;
28547;SDS011;68292;49.600;8.746;2023-05-17T00:37:45;3.50;;;1.93;;
28547;SDS011;68292;49.600;8.746;2023-05-17T00:40:13;2.43;;;1.90;;
28547;SDS011;68292;49.600;8.746;2023-05-17T00:42:42;2.10;;;1.73;;
28547;SDS011;68292;49.600;8.746;2023-05-17T00:45:10;2.53;;;1.77;;
28547;SDS011;68292;49.600;8.746;2023-05-17T00:47:40;3.13;;;1.90;;
28547;SDS011;68292;49.600;8.746;2023-05-17T00:50:09;1.97;;;1.60;;
28547;SDS011;68292;49.600;8.746;2023-05-17T00:52:38;3.67;;;1.97;;
28547;SDS011;68292;49.600;8.746;2023-05-17T00:55:06;3.53;;;2.20;;
28547;SDS011;68292;49.600;8.746;2023-05-17T00:57:35;2.80;;;2.50;;
28547;SDS011;68292;49.600;8.746;2023-05-17T01:00:03;3.33;;;1.80;;
28547;SDS011;68292;49.600;8.746;2023-05-17T01:02:34;3.10;;;2.23;;
28547;SDS011;68292;49.600;8.746;2023-05-17T01:05:04;1.77;;;1.63;;
28547;SDS011;68292;49.600;8.746;2023-05-17T01:07:33;3.33;;;1.90;;
28547;SDS011;68292;49.600;8.746;2023-05-17T01:10:02;3.03;;;2.40;;
28547;SDS011;68292;49.600;8.746;2023-05-17T01:12:35;4.17;;;2.00;;
28547;SDS011;68292;49.600;8.746;2023-05-17T01:15:17;3.53;;;1.60;;
28547;SDS011;68292;49.600;8.746;2023-05-17T01:17:53;3.67;;;2.20;;
28547;SDS011;68292;49.600;8.746;2023-05-17T01:20:32;3.23;;;2.30;;
28547;SDS011;68292;49.600;8.746;2023-05-17T01:23:09;4.57;;;2.50;;
28547;SDS011;68292;49.600;8.746;2023-05-17T01:26:00;3.50;;;2.30;;
28547;SDS011;68292;49.600;8.746;2023-05-17T01:28:36;3.17;;;2.30;;
28547;SDS011;68292;49.600;8.746;2023-05-17T01:31:06;3.17;;;1.80;;
28547;SDS011;68292;49.600;8.746;2023-05-17T01:33:35;4.70;;;2.17;;
28547;SDS011;68292;49.600;8.746;2023-05-17T01:36:06;5.43;;;1.70;;
28547;SDS011;68292;49.600;8.746;2023-05-17T01:38:35;2.37;;;1.97;;
28547;SDS011;68292;49.600;8.746;2023-05-17T01:41:04;3.63;;;1.80;;
28547;SDS011;68292;49.600;8.746;2023-05-17T01:43:47;2.03;;;1.70;;
28547;SDS011;68292;49.600;8.746;2023-05-17T01:46:23;2.53;;;2.10;;
28547;SDS011;68292;49.600;8.746;2023-05-17T01:48:55;5.57;;;2.27;;
28547;SDS011;68292;49.600;8.746;2023-05-17T01:51:35;3.00;;;2.40;;
28547;SDS011;68292;49.600;8.746;2023-05-17T01:54:11;5.93;;;2.17;;
28547;SDS011;68292;49.600;8.746;2023-05-17T01:56:42;3.70;;;2.60;;
28547;SDS011;68292;49.600;8.746;2023-05-17T01:59:18;2.90;;;2.10;;
28547;SDS011;68292;49.600;8.746;2023-05-17T02:01:51;3.90;;;2.00;;
28547;SDS011;68292;49.600;8.746;2023-05-17T02:04:22;2.73;;;2.03;;
28547;SDS011;68292;49.600;8.746;2023-05-17T02:06:51;4.70;;;2.07;;
28547;SDS011;68292;49.600;8.746;2023-05-17T02:09:19;4.00;;;2.00;;
28547;SDS011;68292;49.600;8.746;2023-05-17T02:11:48;2.93;;;2.03;;
28547;SDS011;68292;49.600;8.746;2023-05-17T02:14:17;3.17;;;1.93;;
28547;SDS011;68292;49.600;8.746;2023-05-17T02:16:45;4.37;;;2.10;;
28547;SDS011;68292;49.600;8.746;2023-05-17T02:19:14;4.87;;;2.33;;
28547;SDS011;68292;49.600;8.746;2023-05-17T02:21:42;3.87;;;2.20;;
28547;SDS011;68292;49.600;8.746;2023-05-17T02:24:10;2.93;;;1.93;;
28547;SDS011;68292;49.600;8.746;2023-05-17T02:26:38;5.40;;;2.30;;
28547;SDS011;68292;49.600;8.746;2023-05-17T02:29:08;2.50;;;1.67;;
28547;SDS011;68292;49.600;8.746;2023-05-17T02:31:38;3.63;;;2.00;;
28547;SDS011;68292;49.600;8.746;2023-05-17T02:34:06;2.87;;;2.07;;
28547;SDS011;68292;49.600;8.746;2023-05-17T02:36:37;3.07;;;1.97;;
28547;SDS011;68292;49.600;8.746;2023-05-17T02:39:06;2.17;;;1.73;;
28547;SDS011;68292;49.600;8.746;2023-05-17T02:41:34;2.70;;;2.30;;
28547;SDS011;68292;49.600;8.746;2023-05-17T02:44:02;2.20;;;1.80;;
28547;SDS011;68292;49.600;8.746;2023-05-17T02:46:30;2.80;;;1.90;;
28547;SDS011;68292;49.600;8.746;2023-05-17T02:49:00;2.63;;;2.13;;
28547;SDS011;68292;49.600;8.746;2023-05-17T02:51:28;2.23;;;1.80;;
28547;SDS011;68292;49.600;8.746;2023-05-17T02:53:56;4.70;;;2.00;;
28547;SDS011;68292;49.600;8.746;2023-05-17T02:56:25;3.20;;;2.20;;
28547;SDS011;68292;49.600;8.746;2023-05-17T02:58:53;2.77;;;2.07;;
28547;SDS011;68292;49.600;8.746;2023-05-17T03:01:23;6.03;;;2.27;;
28547;SDS011;68292;49.600;8.746;2023-05-17T03:03:51;5.23;;;2.20;;
28547;SDS011;68292;49.600;8.746;2023-05-17T03:06:21;4.07;;;2.53;;
28547;SDS011;68292;49.600;8.746;2023-05-17T03:08:50;6.90;;;2.10;;
28547;SDS011;68292;49.600;8.746;2023-05-17T03:11:18;2.33;;;2.00;;
28547;SDS011;68292;49.600;8.746;2023-05-17T03:13:47;2.67;;;2.10;;
28547;SDS011;68292;49.600;8.746;2023-05-17T03:16:19;2.97;;;2.07;;
28547;SDS011;68292;49.600;8.746;2023-05-17T03:18:49;3.13;;;2.17;;
28547;SDS011;68292;49.600;8.746;2023-05-17T03:21:18;2.67;;;2.30;;
28547;SDS011;68292;49.600;8.746;2023-05-17T03:23:49;3.50;;;2.60;;
28547;SDS011;68292;49.600;8.746;2023-05-17T03:26:17;3.50;;;2.30;;
28547;SDS011;68292;49.600;8.746;2023-05-17T03:28:50;2.23;;;2.03;;
28547;SDS011;68292;49.600;8.746;2023-05-17T03:31:18;4.13;;;2.40;;
28547;SDS011;68292;49.600;8.746;2023-05-17T03:33:46;3.33;;;2.70;;
28547;SDS011;68292;49.600;8.746;2023-05-17T03:36:16;5.00;;;2.17;;
28547;SDS011;68292;49.600;8.746;2023-05-17T03:38:44;2.23;;;2.03;;
28547;SDS011;68292;49.600;8.746;2023-05-17T03:41:14;5.03;;;2.57;;
28547;SDS011;68292;49.600;8.746;2023-05-17T03:43:42;4.60;;;2.37;;
28547;SDS011;68292;49.600;8.746;2023-05-17T03:46:13;4.73;;;2.33;;
28547;SDS011;68292;49.600;8.746;2023-05-17T03:48:41;3.57;;;2.33;;
28547;SDS011;68292;49.600;8.746;2023-05-17T03:51:10;3.77;;;2.37;;
28547;SDS011;68292;49.600;8.746;2023-05-17T03:53:38;2.67;;;2.17;;
28547;SDS011;68292;49.600;8.746;2023-05-17T03:56:09;2.70;;;2.00;;
28547;SDS011;68292;49.600;8.746;2023-05-17T03:58:38;3.30;;;2.23;;
28547;SDS011;68292;49.600;8.746;2023-05-17T04:01:09;2.33;;;2.13;;
28547;SDS011;68292;49.600;8.746;2023-05-17T04:03:37;2.57;;;2.13;;
28547;SDS011;68292;49.600;8.746;2023-05-17T04:06:05;2.57;;;2.20;;
28547;SDS011;68292;49.600;8.746;2023-05-17T04:08:37;3.43;;;2.53;;
28547;SDS011;68292;49.600;8.746;2023-05-17T04:11:05;4.33;;;2.00;;
28547;SDS011;68292;49.600;8.746;2023-05-17T04:13:40;2.93;;;2.50;;
28547;SDS011;68292;49.600;8.746;2023-05-17T04:16:09;3.07;;;2.37;;
28547;SDS011;68292;49.600;8.746;2023-05-17T04:18:39;3.20;;;2.17;;
28547;SDS011;68292;49.600;8.746;2023-05-17T04:21:08;3.37;;;2.53;;
28547;SDS011;68292;49.600;8.746;2023-05-17T04:23:37;3.57;;;2.30;;
28547;SDS011;68292;49.600;8.746;2023-05-17T04:26:06;2.87;;;2.10;;
28547;SDS011;68292;49.600;8.746;2023-05-17T04:28:37;5.77;;;2.57;;
28547;SDS011;68292;49.600;8.746;2023-05-17T04:31:07;2.20;;;2.00;;
28547;SDS011;68292;49.600;8.746;2023-05-17T04:33:36;3.90;;;2.37;;
28547;SDS011;68292;49.600;8.746;2023-05-17T04:36:05;3.03;;;2.40;;
28547;SDS011;68292;49.600;8.746;2023-05-17T04:38:36;3.03;;;2.47;;
28547;SDS011;68292;49.600;8.746;2023-05-17T04:41:07;2.90;;;2.30;;
28547;SDS011;68292;49.600;8.746;2023-05-17T04:43:37;6.77;;;2.60;;
28547;SDS011;68292;49.600;8.746;2023-05-17T04:46:12;4.93;;;2.50;;
28547;SDS011;68292;49.600;8.746;2023-05-17T04:48:40;5.07;;;2.70;;
28547;SDS011;68292;49.600;8.746;2023-05-17T04:51:11;5.13;;;3.07;;
28547;SDS011;68292;49.600;8.746;2023-05-17T04:53:39;3.33;;;3.03;;
28547;SDS011;68292;49.600;8.746;2023-05-17T04:56:13;4.97;;;3.00;;
28547;SDS011;68292;49.600;8.746;2023-05-17T04:58:41;3.07;;;2.43;;
28547;SDS011;68292;49.600;8.746;2023-05-17T05:01:12;4.20;;;2.80;;
28547;SDS011;68292;49.600;8.746;2023-05-17T05:03:41;3.07;;;2.50;;
28547;SDS011;68292;49.600;8.746;2023-05-17T05:06:10;2.67;;;2.27;;
28547;SDS011;68292;49.600;8.746;2023-05-17T05:08:39;2.57;;;2.20;;
28547;SDS011;68292;49.600;8.746;2023-05-17T05:11:10;3.67;;;2.20;;
28547;SDS011;68292;49.600;8.746;2023-05-17T05:13:38;4.00;;;2.30;;
28547;SDS011;68292;49.600;8.746;2023-05-17T05:16:07;6.77;;;3.27;;
28547;SDS011;68292;49.600;8.746;2023-05-17T05:18:37;3.40;;;2.53;;
28547;SDS011;68292;49.600;8.746;2023-05-17T05:21:05;3.30;;;2.30;;
28547;SDS011;68292;49.600;8.746;2023-05-17T05:23:34;4.27;;;2.80;;
28547;SDS011;68292;49.600;8.746;2023-05-17T05:26:02;3.50;;;2.47;;
28547;SDS011;68292;49.600;8.746;2023-05-17T05:28:31;4.00;;;3.03;;
28547;SDS011;68292;49.600;8.746;2023-05-17T05:30:59;3.37;;;2.67;;
28547;SDS011;68292;49.600;8.746;2023-05-17T05:33:34;4.07;;;2.90;;
28547;SDS011;68292;49.600;8.746;2023-05-17T05:36:04;3.43;;;3.00;;
28547;SDS011;68292;49.600;8.746;2023-05-17T05:38:33;4.40;;;2.60;;
28547;SDS011;68292;49.600;8.746;2023-05-17T05:41:03;5.97;;;2.80;;
28547;SDS011;68292;49.600;8.746;2023-05-17T05:43:31;3.30;;;2.37;;
28547;SDS011;68292;49.600;8.746;2023-05-17T05:46:01;3.90;;;3.00;;
28547;SDS011;68292;49.600;8.746;2023-05-17T05:48:29;3.50;;;2.73;;
28547;SDS011;68292;49.600;8.746;2023-05-17T05:50:58;4.80;;;3.00;;
28547;SDS011;68292;49.600;8.746;2023-05-17T05:53:27;5.63;;;3.10;;
28547;SDS011;68292;49.600;8.746;2023-05-17T05:55:55;4.47;;;3.20;;
28547;SDS011;68292;49.600;8.746;2023-05-17T05:58:24;4.10;;;2.77;;
28547;SDS011;68292;49.600;8.746;2023-05-17T06:00:52;6.97;;;3.10;;
28547;SDS011;68292;49.600;8.746;2023-05-17T06:03:20;4.00;;;2.87;;
28547;SDS011;68292;49.600;8.746;2023-05-17T06:05:49;3.53;;;2.87;;
28547;SDS011;68292;49.600;8.746;2023-05-17T06:08:18;4.67;;;3.10;;
28547;SDS011;68292;49.600;8.746;2023-05-17T06:10:47;4.13;;;2.87;;
28547;SDS011;68292;49.600;8.746;2023-05-17T06:13:16;6.97;;;3.00;;
28547;SDS011;68292;49.600;8.746;2023-05-17T06:15:44;4.73;;;2.90;;
28547;SDS011;68292;49.600;8.746;2023-05-17T06:18:12;4.50;;;2.70;;
28547;SDS011;68292;49.600;8.746;2023-05-17T06:20:40;3.03;;;2.70;;
28547;SDS011;68292;49.600;8.746;2023-05-17T06:23:08;5.17;;;2.90;;
28547;SDS011;68292;49.600;8.746;2023-05-17T06:25:36;3.37;;;2.60;;
28547;SDS011;68292;49.600;8.746;2023-05-17T06:28:07;3.67;;;2.83;;
28547;SDS011;68292;49.600;8.746;2023-05-17T06:30:35;6.87;;;3.20;;
28547;SDS011;68292;49.600;8.746;2023-05-17T06:33:03;3.73;;;2.73;;
28547;SDS011;68292;49.600;8.746;2023-05-17T06:35:32;4.87;;;2.77;;
28547;SDS011;68292;49.600;8.746;2023-05-17T06:38:20;7.30;;;3.23;;
28547;SDS011;68292;49.600;8.746;2023-05-17T06:40:50;7.43;;;3.37;;
28547;SDS011;68292;49.600;8.746;2023-05-17T06:43:20;3.50;;;2.83;;
28547;SDS011;68292;49.600;8.746;2023-05-17T06:45:48;4.20;;;2.93;;
28547;SDS011;68292;49.600;8.746;2023-05-17T06:48:16;4.47;;;2.87;;
28547;SDS011;68292;49.600;8.746;2023-05-17T06:50:45;5.43;;;3.73;;
28547;SDS011;68292;49.600;8.746;2023-05-17T06:53:13;4.30;;;3.07;;
28547;SDS011;68292;49.600;8.746;2023-05-17T06:55:41;4.07;;;3.53;;
28547;SDS011;68292;49.600;8.746;2023-05-17T06:58:09;4.60;;;3.60;;
28547;SDS011;68292;49.600;8.746;2023-05-17T07:00:38;3.73;;;3.00;;
28547;SDS011;68292;49.600;8.746;2023-05-17T07:03:06;3.53;;;2.97;;
28547;SDS011;68292;49.600;8.746;2023-05-17T07:05:35;6.97;;;3.20;;
28547;SDS011;68292;49.600;8.746;2023-05-17T07:08:03;4.30;;;2.90;;
28547;SDS011;68292;49.600;8.746;2023-05-17T07:10:32;5.20;;;3.30;;
28547;SDS011;68292;49.600;8.746;2023-05-17T07:13:00;8.43;;;3.53;;
28547;SDS011;68292;49.600;8.746;2023-05-17T07:15:28;5.33;;;3.50;;
28547;SDS011;68292;49.600;8.746;2023-05-17T07:17:57;3.37;;;2.83;;
28547;SDS011;68292;49.600;8.746;2023-05-17T07:20:26;4.80;;;3.27;;
28547;SDS011;68292;49.600;8.746;2023-05-17T07:22:54;5.10;;;3.00;;
28547;SDS011;68292;49.600;8.746;2023-05-17T07:25:22;3.85;;;2.53;;
28547;SDS011;68292;49.600;8.746;2023-05-17T07:27:50;6.87;;;3.33;;
28547;SDS011;68292;49.600;8.746;2023-05-17T07:30:18;4.63;;;3.00;;
28547;SDS011;68292;49.600;8.746;2023-05-17T07:32:47;5.13;;;3.27;;
28547;SDS011;68292;49.600;8.746;2023-05-17T07:35:16;4.70;;;3.10;;
28547;SDS011;68292;49.600;8.746;2023-05-17T07:37:47;4.23;;;2.97;;
28547;SDS011;68292;49.600;8.746;2023-05-17T07:40:15;7.07;;;3.73;;
28547;SDS011;68292;49.600;8.746;2023-05-17T07:42:43;5.13;;;3.20;;
28547;SDS011;68292;49.600;8.746;2023-05-17T07:45:11;6.03;;;3.10;;
28547;SDS011;68292;49.600;8.746;2023-05-17T07:47:39;5.33;;;2.73;;
28547;SDS011;68292;49.600;8.746;2023-05-17T07:50:08;4.67;;;3.10;;
28547;SDS011;68292;49.600;8.746;2023-05-17T07:52:38;3.25;;;2.88;;
28547;SDS011;68292;49.600;8.746;2023-05-17T07:55:07;4.93;;;3.47;;
28547;SDS011;68292;49.600;8.746;2023-05-17T07:57:36;4.85;;;3.42;;
28547;SDS011;68292;49.600;8.746;2023-05-17T08:00:04;4.90;;;3.00;;
28547;SDS011;68292;49.600;8.746;2023-05-17T08:02:38;4.30;;;3.00;;
28547;SDS011;68292;49.600;8.746;2023-05-17T08:05:06;4.93;;;3.17;;
28547;SDS011;68292;49.600;8.746;2023-05-17T08:07:35;6.10;;;3.45;;
28547;SDS011;68292;49.600;8.746;2023-05-17T08:10:05;4.13;;;3.43;;
28547;SDS011;68292;49.600;8.746;2023-05-17T08:12:34;3.72;;;3.17;;
28547;SDS011;68292;49.600;8.746;2023-05-17T08:15:03;4.18;;;3.13;;
28547;SDS011;68292;49.600;8.746;2023-05-17T08:17:33;3.95;;;3.03;;
28547;SDS011;68292;49.600;8.746;2023-05-17T08:20:01;7.78;;;3.33;;
28547;SDS011;68292;49.600;8.746;2023-05-17T08:22:30;4.82;;;3.30;;
28547;SDS011;68292;49.600;8.746;2023-05-17T08:24:58;5.13;;;3.20;;
28547;SDS011;68292;49.600;8.746;2023-05-17T08:27:27;4.57;;;3.08;;
28547;SDS011;68292;49.600;8.746;2023-05-17T08:29:56;5.05;;;3.30;;
28547;SDS011;68292;49.600;8.746;2023-05-17T08:32:25;4.88;;;3.03;;
28547;SDS011;68292;49.600;8.746;2023-05-17T08:34:53;5.07;;;3.33;;
28547;SDS011;68292;49.600;8.746;2023-05-17T08:37:22;3.88;;;3.20;;
28547;SDS011;68292;49.600;8.746;2023-05-17T08:39:50;5.18;;;3.38;;
28547;SDS011;68292;49.600;8.746;2023-05-17T08:42:20;6.15;;;3.63;;
28547;SDS011;68292;49.600;8.746;2023-05-17T08:44:52;5.28;;;3.03;;
28547;SDS011;68292;49.600;8.746;2023-05-17T08:47:20;3.70;;;3.08;;
28547;SDS011;68292;49.600;8.746;2023-05-17T08:49:55;4.50;;;3.00;;
28547;SDS011;68292;49.600;8.746;2023-05-17T08:52:27;4.15;;;3.30;;
28547;SDS011;68292;49.600;8.746;2023-05-17T08:54:56;4.43;;;3.47;;
28547;SDS011;68292;49.600;8.746;2023-05-17T08:57:26;5.15;;;3.15;;
28547;SDS011;68292;49.600;8.746;2023-05-17T08:59:58;4.43;;;3.28;;
28547;SDS011;68292;49.600;8.746;2023-05-17T09:02:29;3.78;;;2.85;;
28547;SDS011;68292;49.600;8.746;2023-05-17T09:04:58;3.85;;;3.10;;
28547;SDS011;68292;49.600;8.746;2023-05-17T09:07:27;3.40;;;2.55;;
28547;SDS011;68292;49.600;8.746;2023-05-17T09:09:55;5.10;;;3.00;;
28547;SDS011;68292;49.600;8.746;2023-05-17T09:12:23;3.95;;;2.50;;
28547;SDS011;68292;49.600;8.746;2023-05-17T09:14:52;4.95;;;3.03;;
28547;SDS011;68292;49.600;8.746;2023-05-17T09:17:21;3.85;;;2.67;;
28547;SDS011;68292;49.600;8.746;2023-05-17T09:19:49;4.70;;;2.90;;
28547;SDS011;68292;49.600;8.746;2023-05-17T09:22:18;3.33;;;2.70;;
28547;SDS011;68292;49.600;8.746;2023-05-17T09:24:46;5.05;;;2.90;;
28547;SDS011;68292;49.600;8.746;2023-05-17T09:27:16;4.68;;;3.00;;
28547;SDS011;68292;49.600;8.746;2023-05-17T09:29:45;4.43;;;2.72;;
28547;SDS011;68292;49.600;8.746;2023-05-17T09:32:14;5.22;;;3.10;;
28547;SDS011;68292;49.600;8.746;2023-05-17T09:34:47;4.45;;;2.97;;
28547;SDS011;68292;49.600;8.746;2023-05-17T09:37:17;4.55;;;3.10;;
28547;SDS011;68292;49.600;8.746;2023-05-17T09:39:46;3.08;;;2.50;;
28547;SDS011;68292;49.600;8.746;2023-05-17T09:42:14;2.97;;;2.63;;
28547;SDS011;68292;49.600;8.746;2023-05-17T09:44:44;3.28;;;2.88;;
28547;SDS011;68292;49.600;8.746;2023-05-17T09:47:24;3.35;;;2.63;;
28547;SDS011;68292;49.600;8.746;2023-05-17T09:49:55;4.00;;;2.75;;
28547;SDS011;68292;49.600;8.746;2023-05-17T09:52:25;5.10;;;2.97;;
28547;SDS011;68292;49.600;8.746;2023-05-17T09:54:57;3.00;;;2.50;;
28547;SDS011;68292;49.600;8.746;2023-05-17T09:57:27;4.32;;;2.60;;
28547;SDS011;68292;49.600;8.746;2023-05-17T10:00:03;5.28;;;2.65;;
28547;SDS011;68292;49.600;8.746;2023-05-17T10:02:38;4.75;;;3.03;;
28547;SDS011;68292;49.600;8.746;2023-05-17T10:05:09;4.68;;;3.10;;
28547;SDS011;68292;49.600;8.746;2023-05-17T10:07:40;5.05;;;2.78;;
28547;SDS011;68292;49.600;8.746;2023-05-17T10:10:08;5.07;;;2.72;;
28547;SDS011;68292;49.600;8.746;2023-05-17T10:12:39;3.17;;;2.80;;
28547;SDS011;68292;49.600;8.746;2023-05-17T10:15:08;3.45;;;2.80;;
28547;SDS011;68292;49.600;8.746;2023-05-17T10:17:41;3.05;;;2.75;;
28547;SDS011;68292;49.600;8.746;2023-05-17T10:20:12;3.80;;;2.92;;
28547;SDS011;68292;49.600;8.746;2023-05-17T10:22:43;3.97;;;2.78;;
28547;SDS011;68292;49.600;8.746;2023-05-17T10:25:11;4.68;;;3.15;;
28547;SDS011;68292;49.600;8.746;2023-05-17T10:27:40;6.00;;;3.10;;
28547;SDS011;68292;49.600;8.746;2023-05-17T10:30:09;7.32;;;3.10;;
28547;SDS011;68292;49.600;8.746;2023-05-17T10:32:39;5.72;;;3.25;;
28547;SDS011;68292;49.600;8.746;2023-05-17T10:35:09;3.15;;;2.70;;
28547;SDS011;68292;49.600;8.746;2023-05-17T10:37:41;3.85;;;2.53;;
28547;SDS011;68292;49.600;8.746;2023-05-17T10:40:10;4.22;;;2.90;;
28547;SDS011;68292;49.600;8.746;2023-05-17T10:42:40;5.25;;;2.75;;
28547;SDS011;68292;49.600;8.746;2023-05-17T10:45:12;3.55;;;2.83;;
28547;SDS011;68292;49.600;8.746;2023-05-17T10:47:40;3.88;;;2.80;;
28547;SDS011;68292;49.600;8.746;2023-05-17T10:50:12;5.20;;;3.00;;
28547;SDS011;68292;49.600;8.746;2023-05-17T10:52:44;6.07;;;3.00;;
28547;SDS011;68292;49.600;8.746;2023-05-17T10:55:18;7.18;;;3.33;;
28547;SDS011;68292;49.600;8.746;2023-05-17T10:57:57;5.65;;;3.30;;
28547;SDS011;68292;49.600;8.746;2023-05-17T11:00:42;7.00;;;3.05;;
28547;SDS011;68292;49.600;8.746;2023-05-17T11:03:13;4.90;;;2.92;;
28547;SDS011;68292;49.600;8.746;2023-05-17T11:09:06;4.38;;;2.95;;
28547;SDS011;68292;49.600;8.746;2023-05-17T11:11:35;4.50;;;2.83;;
28547;SDS011;68292;49.600;8.746;2023-05-17T11:14:03;4.65;;;3.05;;
28547;SDS011;68292;49.600;8.746;2023-05-17T11:16:34;4.45;;;3.17;;
28547;SDS011;68292;49.600;8.746;2023-05-17T11:19:07;4.80;;;3.05;;
28547;SDS011;68292;49.600;8.746;2023-05-17T11:21:45;3.85;;;2.60;;
28547;SDS011;68292;49.600;8.746;2023-05-17T11:24:15;7.35;;;3.08;;
28547;SDS011;68292;49.600;8.746;2023-05-17T11:26:52;4.07;;;3.13;;
28547;SDS011;68292;49.600;8.746;2023-05-17T11:29:22;3.38;;;2.70;;
28547;SDS011;68292;49.600;8.746;2023-05-17T11:31:55;5.03;;;3.15;;
28547;SDS011;68292;49.600;8.746;2023-05-17T11:34:23;3.72;;;2.80;;
28547;SDS011;68292;49.600;8.746;2023-05-17T11:36:55;5.35;;;2.92;;
28547;SDS011;68292;49.600;8.746;2023-05-17T11:39:23;4.75;;;2.90;;
28547;SDS011;68292;49.600;8.746;2023-05-17T11:41:52;5.30;;;3.35;;
28547;SDS011;68292;49.600;8.746;2023-05-17T11:44:22;4.22;;;3.03;;
28547;SDS011;68292;49.600;8.746;2023-05-17T11:46:57;4.53;;;3.00;;
28547;SDS011;68292;49.600;8.746;2023-05-17T11:49:29;3.97;;;2.92;;
28547;SDS011;68292;49.600;8.746;2023-05-17T11:52:03;5.22;;;3.13;;
28547;SDS011;68292;49.600;8.746;2023-05-17T11:54:32;5.38;;;3.17;;
28547;SDS011;68292;49.600;8.746;2023-05-17T11:57:01;10.13;;;3.35;;
28547;SDS011;68292;49.600;8.746;2023-05-17T11:59:35;4.50;;;3.03;;
28547;SDS011;68292;49.600;8.746;2023-05-17T12:02:08;4.97;;;2.80;;
28547;SDS011;68292;49.600;8.746;2023-05-17T12:04:37;6.28;;;2.85;;
28547;SDS011;68292;49.600;8.746;2023-05-17T12:07:08;6.10;;;3.20;;
28547;SDS011;68292;49.600;8.746;2023-05-17T12:09:37;4.55;;;2.95;;
28547;SDS011;68292;49.600;8.746;2023-05-17T12:12:06;3.90;;;3.08;;
28547;SDS011;68292;49.600;8.746;2023-05-17T12:14:34;5.10;;;3.33;;
28547;SDS011;68292;49.600;8.746;2023-05-17T12:17:04;3.92;;;2.85;;
28547;SDS011;68292;49.600;8.746;2023-05-17T12:19:35;3.92;;;2.97;;
28547;SDS011;68292;49.600;8.746;2023-05-17T12:22:04;3.80;;;2.70;;
28547;SDS011;68292;49.600;8.746;2023-05-17T12:24:38;3.58;;;2.85;;
28547;SDS011;68292;49.600;8.746;2023-05-17T12:27:08;4.50;;;2.90;;
28547;SDS011;68292;49.600;8.746;2023-05-17T12:29:37;4.28;;;3.30;;
28547;SDS011;68292;49.600;8.746;2023-05-17T12:32:05;3.85;;;2.95;;
28547;SDS011;68292;49.600;8.746;2023-05-17T12:34:35;5.47;;;2.55;;
28547;SDS011;68292;49.600;8.746;2023-05-17T12:37:04;4.47;;;2.92;;
28547;SDS011;68292;49.600;8.746;2023-05-17T12:39:35;4.70;;;2.85;;
28547;SDS011;68292;49.600;8.746;2023-05-17T12:42:05;3.30;;;2.90;;
28547;SDS011;68292;49.600;8.746;2023-05-17T12:44:35;6.80;;;3.08;;
28547;SDS011;68292;49.600;8.746;2023-05-17T12:47:03;5.40;;;3.10;;
28547;SDS011;68292;49.600;8.746;2023-05-17T12:49:36;3.53;;;2.45;;
28547;SDS011;68292;49.600;8.746;2023-05-17T12:52:05;4.72;;;3.47;;
28547;SDS011;68292;49.600;8.746;2023-05-17T12:54:34;3.33;;;2.80;;
28547;SDS011;68292;49.600;8.746;2023-05-17T12:57:09;7.05;;;3.45;;
28547;SDS011;68292;49.600;8.746;2023-05-17T12:59:45;4.72;;;3.10;;
28547;SDS011;68292;49.600;8.746;2023-05-17T13:02:14;3.75;;;2.97;;
28547;SDS011;68292;49.600;8.746;2023-05-17T13:04:43;4.28;;;2.58;;
28547;SDS011;68292;49.600;8.746;2023-05-17T13:07:19;5.20;;;3.05;;
28547;SDS011;68292;49.600;8.746;2023-05-17T13:09:49;4.22;;;2.75;;
28547;SDS011;68292;49.600;8.746;2023-05-17T13:12:19;4.65;;;3.00;;
28547;SDS011;68292;49.600;8.746;2023-05-17T13:14:51;4.22;;;2.70;;
28547;SDS011;68292;49.600;8.746;2023-05-17T13:17:23;4.50;;;3.38;;
28547;SDS011;68292;49.600;8.746;2023-05-17T13:19:53;6.80;;;3.25;;
28547;SDS011;68292;49.600;8.746;2023-05-17T13:22:23;4.18;;;2.83;;
28547;SDS011;68292;49.600;8.746;2023-05-17T13:24:51;3.33;;;2.88;;
28547;SDS011;68292;49.600;8.746;2023-05-17T13:27:21;4.40;;;2.72;;
28547;SDS011;68292;49.600;8.746;2023-05-17T13:29:49;3.50;;;2.80;;
28547;SDS011;68292;49.600;8.746;2023-05-17T13:32:17;5.05;;;3.03;;
28547;SDS011;68292;49.600;8.746;2023-05-17T13:34:47;4.63;;;3.10;;
28547;SDS011;68292;49.600;8.746;2023-05-17T13:37:15;6.80;;;3.20;;
28547;SDS011;68292;49.600;8.746;2023-05-17T13:39:43;7.43;;;3.67;;
28547;SDS011;68292;49.600;8.746;2023-05-17T13:42:12;4.38;;;3.22;;
28547;SDS011;68292;49.600;8.746;2023-05-17T13:44:41;3.97;;;2.63;;
28547;SDS011;68292;49.600;8.746;2023-05-17T13:47:09;4.35;;;2.80;;
28547;SDS011;68292;49.600;8.746;2023-05-17T13:49:37;4.60;;;2.67;;
28547;SDS011;68292;49.600;8.746;2023-05-17T13:52:06;5.28;;;2.78;;
28547;SDS011;68292;49.600;8.746;2023-05-17T13:54:34;6.13;;;2.85;;
28547;SDS011;68292;49.600;8.746;2023-05-17T13:57:04;3.78;;;2.90;;
28547;SDS011;68292;49.600;8.746;2023-05-17T13:59:33;6.55;;;2.97;;
28547;SDS011;68292;49.600;8.746;2023-05-17T14:02:02;4.18;;;3.03;;
28547;SDS011;68292;49.600;8.746;2023-05-17T14:04:31;4.78;;;2.92;;
28547;SDS011;68292;49.600;8.746;2023-05-17T14:07:00;3.25;;;2.80;;
28547;SDS011;68292;49.600;8.746;2023-05-17T14:09:28;4.40;;;2.72;;
28547;SDS011;68292;49.600;8.746;2023-05-17T14:11:59;5.20;;;3.13;;
28547;SDS011;68292;49.600;8.746;2023-05-17T14:14:28;5.78;;;3.00;;
28547;SDS011;68292;49.600;8.746;2023-05-17T14:16:56;4.10;;;2.95;;
28547;SDS011;68292;49.600;8.746;2023-05-17T14:19:27;5.32;;;3.10;;
28547;SDS011;68292;49.600;8.746;2023-05-17T14:21:56;4.07;;;2.80;;
28547;SDS011;68292;49.600;8.746;2023-05-17T14:24:24;5.32;;;3.65;;
28547;SDS011;68292;49.600;8.746;2023-05-17T14:26:52;4.00;;;2.70;;
28547;SDS011;68292;49.600;8.746;2023-05-17T14:29:20;6.15;;;2.90;;
28547;SDS011;68292;49.600;8.746;2023-05-17T14:31:48;3.45;;;2.83;;
28547;SDS011;68292;49.600;8.746;2023-05-17T14:34:17;7.03;;;3.28;;
28547;SDS011;68292;49.600;8.746;2023-05-17T14:36:46;4.53;;;2.80;;
28547;SDS011;68292;49.600;8.746;2023-05-17T14:39:16;4.07;;;2.85;;
28547;SDS011;68292;49.600;8.746;2023-05-17T14:41:44;6.35;;;2.65;;
28547;SDS011;68292;49.600;8.746;2023-05-17T14:44:12;3.63;;;2.65;;
28547;SDS011;68292;49.600;8.746;2023-05-17T14:46:40;5.50;;;2.63;;
28547;SDS011;68292;49.600;8.746;2023-05-17T14:49:08;3.33;;;2.20;;
28547;SDS011;68292;49.600;8.746;2023-05-17T14:51:36;2.60;;;2.25;;
28547;SDS011;68292;49.600;8.746;2023-05-17T14:54:06;3.05;;;2.35;;
28547;SDS011;68292;49.600;8.746;2023-05-17T14:56:34;2.67;;;2.05;;
28547;SDS011;68292;49.600;8.746;2023-05-17T14:59:02;3.35;;;2.33;;
28547;SDS011;68292;49.600;8.746;2023-05-17T15:01:30;3.42;;;2.47;;
28547;SDS011;68292;49.600;8.746;2023-05-17T15:03:58;4.88;;;2.53;;
28547;SDS011;68292;49.600;8.746;2023-05-17T15:06:26;2.83;;;2.28;;